sensor_id;sensor_type;location;lat;lon;timestamp;P1;durP1;ratioP1;P2;durP2;ratioP2
83769;SDS011;73763;48.936;9.300;2024-01-07T00:01:08;43.65;;;29.40;;
83769;SDS011;73763;48.936;9.300;2024-01-07T00:03:34;44.03;;;29.87;;
83769;SDS011;73763;48.936;9.300;2024-01-07T00:05:59;40.13;;;27.48;;
83769;SDS011;73763;48.936;9.300;2024-01-07T00:08:25;41.83;;;28.57;;
83769;SDS011;73763;48.936;9.300;2024-01-07T00:10:50;39.83;;;27.27;;
83769;SDS011;73763;48.936;9.300;2024-01-07T00:13:16;43.87;;;29.27;;
83769;SDS011;73763;48.936;9.300;2024-01-07T00:15:41;46.20;;;28.67;;
83769;SDS011;73763;48.936;9.300;2024-01-07T00:18:07;41.72;;;29.08;;
83769;SDS011;73763;48.936;9.300;2024-01-07T00:20:32;45.20;;;28.90;;
83769;SDS011;73763;48.936;9.300;2024-01-07T00:22:58;42.78;;;28.00;;
83769;SDS011;73763;48.936;9.300;2024-01-07T00:25:23;45.10;;;27.97;;
83769;SDS011;73763;48.936;9.300;2024-01-07T00:27:49;44.50;;;29.67;;
83769;SDS011;73763;48.936;9.300;2024-01-07T00:30:14;40.60;;;28.70;;
83769;SDS011;73763;48.936;9.300;2024-01-07T00:32:40;41.40;;;28.63;;
83769;SDS011;73763;48.936;9.300;2024-01-07T00:35:05;42.60;;;28.90;;
83769;SDS011;73763;48.936;9.300;2024-01-07T00:37:31;48.75;;;29.73;;
83769;SDS011;73763;48.936;9.300;2024-01-07T00:39:57;45.87;;;28.83;;
83769;SDS011;73763;48.936;9.300;2024-01-07T00:42:22;45.87;;;30.60;;
83769;SDS011;73763;48.936;9.300;2024-01-07T00:44:48;45.90;;;29.47;;
83769;SDS011;73763;48.936;9.300;2024-01-07T00:47:13;43.67;;;29.07;;
83769;SDS011;73763;48.936;9.300;2024-01-07T00:49:39;44.53;;;29.25;;
83769;SDS011;73763;48.936;9.300;2024-01-07T00:52:04;41.20;;;27.67;;
83769;SDS011;73763;48.936;9.300;2024-01-07T00:54:30;43.05;;;28.38;;
83769;SDS011;73763;48.936;9.300;2024-01-07T00:56:55;41.73;;;28.20;;
83769;SDS011;73763;48.936;9.300;2024-01-07T00:59:21;40.45;;;27.15;;
83769;SDS011;73763;48.936;9.300;2024-01-07T01:01:46;41.60;;;27.90;;
83769;SDS011;73763;48.936;9.300;2024-01-07T01:04:12;44.35;;;27.85;;
83769;SDS011;73763;48.936;9.300;2024-01-07T01:06:37;50.13;;;29.97;;
83769;SDS011;73763;48.936;9.300;2024-01-07T01:09:03;46.63;;;29.83;;
83769;SDS011;73763;48.936;9.300;2024-01-07T01:11:29;46.13;;;29.90;;
83769;SDS011;73763;48.936;9.300;2024-01-07T01:13:54;49.60;;;30.10;;
83769;SDS011;73763;48.936;9.300;2024-01-07T01:16:20;44.57;;;29.17;;
83769;SDS011;73763;48.936;9.300;2024-01-07T01:18:45;47.80;;;29.80;;
83769;SDS011;73763;48.936;9.300;2024-01-07T01:21:11;45.30;;;29.37;;
83769;SDS011;73763;48.936;9.300;2024-01-07T01:23:36;41.93;;;28.80;;
83769;SDS011;73763;48.936;9.300;2024-01-07T01:26:02;47.28;;;30.02;;
83769;SDS011;73763;48.936;9.300;2024-01-07T01:28:27;43.20;;;29.03;;
83769;SDS011;73763;48.936;9.300;2024-01-07T01:30:53;41.78;;;28.10;;
83769;SDS011;73763;48.936;9.300;2024-01-07T01:33:18;40.80;;;27.70;;
83769;SDS011;73763;48.936;9.300;2024-01-07T01:35:44;38.33;;;26.98;;
83769;SDS011;73763;48.936;9.300;2024-01-07T01:38:09;41.60;;;28.17;;
83769;SDS011;73763;48.936;9.300;2024-01-07T01:40:35;42.45;;;28.17;;
83769;SDS011;73763;48.936;9.300;2024-01-07T01:43:00;44.03;;;27.60;;
83769;SDS011;73763;48.936;9.300;2024-01-07T01:45:26;38.92;;;27.45;;
83769;SDS011;73763;48.936;9.300;2024-01-07T01:47:51;43.67;;;28.37;;
83769;SDS011;73763;48.936;9.300;2024-01-07T01:50:17;41.85;;;28.20;;
83769;SDS011;73763;48.936;9.300;2024-01-07T01:52:44;38.50;;;27.07;;
83769;SDS011;73763;48.936;9.300;2024-01-07T01:55:10;41.47;;;27.20;;
83769;SDS011;73763;48.936;9.300;2024-01-07T01:57:36;40.42;;;27.90;;
83769;SDS011;73763;48.936;9.300;2024-01-07T02:00:03;38.17;;;26.80;;
83769;SDS011;73763;48.936;9.300;2024-01-07T02:02:29;39.50;;;28.05;;
83769;SDS011;73763;48.936;9.300;2024-01-07T02:04:55;39.90;;;26.35;;
83769;SDS011;73763;48.936;9.300;2024-01-07T02:07:21;37.23;;;26.73;;
83769;SDS011;73763;48.936;9.300;2024-01-07T02:09:47;38.90;;;27.00;;
83769;SDS011;73763;48.936;9.300;2024-01-07T02:12:12;38.70;;;26.30;;
83769;SDS011;73763;48.936;9.300;2024-01-07T02:14:38;36.25;;;25.42;;
83769;SDS011;73763;48.936;9.300;2024-01-07T02:17:04;37.20;;;25.30;;
83769;SDS011;73763;48.936;9.300;2024-01-07T02:19:29;37.83;;;25.00;;
83769;SDS011;73763;48.936;9.300;2024-01-07T02:21:57;30.17;;;22.88;;
83769;SDS011;73763;48.936;9.300;2024-01-07T02:24:23;31.77;;;23.58;;
83769;SDS011;73763;48.936;9.300;2024-01-07T02:26:48;29.90;;;23.27;;
83769;SDS011;73763;48.936;9.300;2024-01-07T02:29:14;30.20;;;22.52;;
83769;SDS011;73763;48.936;9.300;2024-01-07T02:31:40;29.77;;;21.63;;
83769;SDS011;73763;48.936;9.300;2024-01-07T02:34:05;26.33;;;20.90;;
83769;SDS011;73763;48.936;9.300;2024-01-07T02:36:31;26.63;;;20.55;;
83769;SDS011;73763;48.936;9.300;2024-01-07T02:38:56;27.43;;;19.53;;
83769;SDS011;73763;48.936;9.300;2024-01-07T02:41:22;25.23;;;19.33;;
83769;SDS011;73763;48.936;9.300;2024-01-07T02:43:47;29.97;;;20.67;;
83769;SDS011;73763;48.936;9.300;2024-01-07T02:46:13;28.08;;;19.20;;
83769;SDS011;73763;48.936;9.300;2024-01-07T02:48:39;25.45;;;18.80;;
83769;SDS011;73763;48.936;9.300;2024-01-07T02:51:04;24.90;;;18.43;;
83769;SDS011;73763;48.936;9.300;2024-01-07T02:53:31;23.52;;;17.13;;
83769;SDS011;73763;48.936;9.300;2024-01-07T02:55:57;23.10;;;17.57;;
83769;SDS011;73763;48.936;9.300;2024-01-07T02:58:22;24.40;;;18.43;;
83769;SDS011;73763;48.936;9.300;2024-01-07T03:00:48;21.47;;;17.30;;
83769;SDS011;73763;48.936;9.300;2024-01-07T03:03:13;23.90;;;18.02;;
83769;SDS011;73763;48.936;9.300;2024-01-07T03:05:39;23.63;;;16.67;;
83769;SDS011;73763;48.936;9.300;2024-01-07T03:08:04;24.63;;;18.15;;
83769;SDS011;73763;48.936;9.300;2024-01-07T03:10:30;24.47;;;18.57;;
83769;SDS011;73763;48.936;9.300;2024-01-07T03:12:56;22.40;;;18.13;;
83769;SDS011;73763;48.936;9.300;2024-01-07T03:15:21;22.07;;;17.53;;
83769;SDS011;73763;48.936;9.300;2024-01-07T03:17:47;22.42;;;18.23;;
83769;SDS011;73763;48.936;9.300;2024-01-07T03:20:12;25.77;;;18.37;;
83769;SDS011;73763;48.936;9.300;2024-01-07T03:22:38;27.02;;;18.65;;
83769;SDS011;73763;48.936;9.300;2024-01-07T03:25:03;25.30;;;18.87;;
83769;SDS011;73763;48.936;9.300;2024-01-07T03:27:29;25.05;;;19.00;;
83769;SDS011;73763;48.936;9.300;2024-01-07T03:29:55;24.55;;;19.50;;
83769;SDS011;73763;48.936;9.300;2024-01-07T03:32:20;27.00;;;19.07;;
83769;SDS011;73763;48.936;9.300;2024-01-07T03:34:46;26.20;;;19.33;;
83769;SDS011;73763;48.936;9.300;2024-01-07T03:37:11;26.17;;;20.33;;
83769;SDS011;73763;48.936;9.300;2024-01-07T03:39:37;27.70;;;20.20;;
83769;SDS011;73763;48.936;9.300;2024-01-07T03:42:02;31.00;;;21.02;;
83769;SDS011;73763;48.936;9.300;2024-01-07T03:44:28;28.03;;;18.97;;
83769;SDS011;73763;48.936;9.300;2024-01-07T03:46:54;25.15;;;18.63;;
83769;SDS011;73763;48.936;9.300;2024-01-07T03:49:19;21.13;;;16.25;;
83769;SDS011;73763;48.936;9.300;2024-01-07T03:51:45;19.87;;;16.57;;
83769;SDS011;73763;48.936;9.300;2024-01-07T03:54:10;20.45;;;15.38;;
83769;SDS011;73763;48.936;9.300;2024-01-07T03:56:36;21.63;;;15.80;;
83769;SDS011;73763;48.936;9.300;2024-01-07T03:59:01;18.67;;;14.93;;
83769;SDS011;73763;48.936;9.300;2024-01-07T04:01:27;19.93;;;15.10;;
83769;SDS011;73763;48.936;9.300;2024-01-07T04:03:52;21.97;;;15.37;;
83769;SDS011;73763;48.936;9.300;2024-01-07T04:06:18;22.88;;;16.33;;
83769;SDS011;73763;48.936;9.300;2024-01-07T04:08:43;23.57;;;16.63;;
83769;SDS011;73763;48.936;9.300;2024-01-07T04:11:09;19.33;;;15.55;;
83769;SDS011;73763;48.936;9.300;2024-01-07T04:13:34;20.57;;;16.30;;
83769;SDS011;73763;48.936;9.300;2024-01-07T04:16:00;20.92;;;17.30;;
83769;SDS011;73763;48.936;9.300;2024-01-07T04:18:25;20.83;;;17.03;;
83769;SDS011;73763;48.936;9.300;2024-01-07T04:20:51;22.08;;;18.13;;
83769;SDS011;73763;48.936;9.300;2024-01-07T04:23:16;24.77;;;19.97;;
83769;SDS011;73763;48.936;9.300;2024-01-07T04:25:42;25.10;;;19.35;;
83769;SDS011;73763;48.936;9.300;2024-01-07T04:28:07;23.47;;;19.30;;
83769;SDS011;73763;48.936;9.300;2024-01-07T04:30:33;28.23;;;20.75;;
83769;SDS011;73763;48.936;9.300;2024-01-07T04:32:58;25.10;;;19.57;;
83769;SDS011;73763;48.936;9.300;2024-01-07T04:35:24;27.95;;;19.23;;
83769;SDS011;73763;48.936;9.300;2024-01-07T04:37:49;26.17;;;19.07;;
83769;SDS011;73763;48.936;9.300;2024-01-07T04:40:15;27.88;;;19.13;;
83769;SDS011;73763;48.936;9.300;2024-01-07T04:42:40;27.50;;;19.90;;
83769;SDS011;73763;48.936;9.300;2024-01-07T04:45:06;28.60;;;18.87;;
83769;SDS011;73763;48.936;9.300;2024-01-07T04:47:33;23.13;;;17.33;;
83769;SDS011;73763;48.936;9.300;2024-01-07T04:49:59;26.55;;;18.23;;
83769;SDS011;73763;48.936;9.300;2024-01-07T04:52:25;24.10;;;17.08;;
83769;SDS011;73763;48.936;9.300;2024-01-07T04:54:51;23.17;;;17.27;;
83769;SDS011;73763;48.936;9.300;2024-01-07T04:57:17;24.57;;;17.50;;
83769;SDS011;73763;48.936;9.300;2024-01-07T04:59:43;23.20;;;17.30;;
83769;SDS011;73763;48.936;9.300;2024-01-07T05:02:09;24.50;;;17.10;;
83769;SDS011;73763;48.936;9.300;2024-01-07T05:04:35;22.57;;;17.20;;
83769;SDS011;73763;48.936;9.300;2024-01-07T05:07:01;20.17;;;16.08;;
83769;SDS011;73763;48.936;9.300;2024-01-07T05:09:26;21.65;;;16.90;;
83769;SDS011;73763;48.936;9.300;2024-01-07T05:11:52;23.23;;;16.47;;
83769;SDS011;73763;48.936;9.300;2024-01-07T05:14:17;22.87;;;17.27;;
83769;SDS011;73763;48.936;9.300;2024-01-07T05:16:43;23.73;;;16.67;;
83769;SDS011;73763;48.936;9.300;2024-01-07T05:19:08;22.40;;;16.73;;
83769;SDS011;73763;48.936;9.300;2024-01-07T05:21:34;23.73;;;16.73;;
83769;SDS011;73763;48.936;9.300;2024-01-07T05:23:59;23.23;;;16.83;;
83769;SDS011;73763;48.936;9.300;2024-01-07T05:26:25;21.23;;;15.65;;
83769;SDS011;73763;48.936;9.300;2024-01-07T05:28:50;21.07;;;16.60;;
83769;SDS011;73763;48.936;9.300;2024-01-07T05:31:16;19.20;;;15.05;;
83769;SDS011;73763;48.936;9.300;2024-01-07T05:33:43;21.25;;;15.27;;
83769;SDS011;73763;48.936;9.300;2024-01-07T05:36:09;19.55;;;15.15;;
83769;SDS011;73763;48.936;9.300;2024-01-07T05:38:35;19.10;;;15.70;;
83769;SDS011;73763;48.936;9.300;2024-01-07T05:41:01;19.83;;;14.27;;
83769;SDS011;73763;48.936;9.300;2024-01-07T05:43:26;17.67;;;13.55;;
83769;SDS011;73763;48.936;9.300;2024-01-07T05:45:52;17.20;;;13.37;;
83769;SDS011;73763;48.936;9.300;2024-01-07T05:48:18;15.82;;;13.75;;
83769;SDS011;73763;48.936;9.300;2024-01-07T05:50:46;16.50;;;13.55;;
83769;SDS011;73763;48.936;9.300;2024-01-07T05:53:11;18.00;;;14.30;;
83769;SDS011;73763;48.936;9.300;2024-01-07T05:55:37;17.57;;;13.90;;
83769;SDS011;73763;48.936;9.300;2024-01-07T05:58:02;18.30;;;13.43;;
83769;SDS011;73763;48.936;9.300;2024-01-07T06:00:28;17.00;;;13.20;;
83769;SDS011;73763;48.936;9.300;2024-01-07T06:02:53;16.38;;;14.18;;
83769;SDS011;73763;48.936;9.300;2024-01-07T06:05:19;17.53;;;14.97;;
83769;SDS011;73763;48.936;9.300;2024-01-07T06:07:44;18.15;;;14.88;;
83769;SDS011;73763;48.936;9.300;2024-01-07T06:10:10;17.83;;;14.27;;
83769;SDS011;73763;48.936;9.300;2024-01-07T06:12:35;20.63;;;15.70;;
83769;SDS011;73763;48.936;9.300;2024-01-07T06:15:01;19.77;;;16.10;;
83769;SDS011;73763;48.936;9.300;2024-01-07T06:17:26;21.37;;;15.53;;
83769;SDS011;73763;48.936;9.300;2024-01-07T06:19:52;19.92;;;15.52;;
83769;SDS011;73763;48.936;9.300;2024-01-07T06:22:17;17.00;;;13.83;;
83769;SDS011;73763;48.936;9.300;2024-01-07T06:24:43;16.05;;;13.02;;
83769;SDS011;73763;48.936;9.300;2024-01-07T06:27:08;14.57;;;12.97;;
83769;SDS011;73763;48.936;9.300;2024-01-07T06:29:34;13.90;;;12.02;;
83769;SDS011;73763;48.936;9.300;2024-01-07T06:31:59;14.47;;;11.90;;
83769;SDS011;73763;48.936;9.300;2024-01-07T06:34:25;16.67;;;12.02;;
83769;SDS011;73763;48.936;9.300;2024-01-07T06:36:50;13.23;;;10.90;;
83769;SDS011;73763;48.936;9.300;2024-01-07T06:39:16;13.07;;;10.67;;
83769;SDS011;73763;48.936;9.300;2024-01-07T06:41:42;11.87;;;10.27;;
83769;SDS011;73763;48.936;9.300;2024-01-07T06:44:07;11.33;;;9.50;;
83769;SDS011;73763;48.936;9.300;2024-01-07T06:46:33;13.37;;;10.20;;
83769;SDS011;73763;48.936;9.300;2024-01-07T06:48:58;13.40;;;9.93;;
83769;SDS011;73763;48.936;9.300;2024-01-07T06:51:24;11.05;;;9.80;;
83769;SDS011;73763;48.936;9.300;2024-01-07T06:53:49;12.27;;;9.70;;
83769;SDS011;73763;48.936;9.300;2024-01-07T06:56:15;12.55;;;10.23;;
83769;SDS011;73763;48.936;9.300;2024-01-07T06:58:40;11.63;;;9.67;;
83769;SDS011;73763;48.936;9.300;2024-01-07T07:01:08;12.43;;;9.75;;
83769;SDS011;73763;48.936;9.300;2024-01-07T07:03:34;11.82;;;9.80;;
83769;SDS011;73763;48.936;9.300;2024-01-07T07:05:59;11.83;;;9.37;;
83769;SDS011;73763;48.936;9.300;2024-01-07T07:08:25;12.87;;;8.60;;
83769;SDS011;73763;48.936;9.300;2024-01-07T07:10:50;9.77;;;8.40;;
83769;SDS011;73763;48.936;9.300;2024-01-07T07:13:16;12.60;;;9.23;;
83769;SDS011;73763;48.936;9.300;2024-01-07T07:15:42;12.43;;;9.00;;
83769;SDS011;73763;48.936;9.300;2024-01-07T07:18:07;11.32;;;8.60;;
83769;SDS011;73763;48.936;9.300;2024-01-07T07:20:33;11.50;;;9.20;;
83769;SDS011;73763;48.936;9.300;2024-01-07T07:22:58;11.13;;;8.65;;
83769;SDS011;73763;48.936;9.300;2024-01-07T07:25:24;12.63;;;9.17;;
83769;SDS011;73763;48.936;9.300;2024-01-07T07:27:50;12.05;;;9.65;;
83769;SDS011;73763;48.936;9.300;2024-01-07T07:30:15;12.93;;;8.93;;
83769;SDS011;73763;48.936;9.300;2024-01-07T07:32:41;11.70;;;9.07;;
83769;SDS011;73763;48.936;9.300;2024-01-07T07:35:07;11.77;;;8.15;;
83769;SDS011;73763;48.936;9.300;2024-01-07T07:37:33;10.50;;;8.25;;
83769;SDS011;73763;48.936;9.300;2024-01-07T07:39:58;9.48;;;7.70;;
83769;SDS011;73763;48.936;9.300;2024-01-07T07:42:24;9.00;;;6.87;;
83769;SDS011;73763;48.936;9.300;2024-01-07T07:44:49;8.32;;;6.68;;
83769;SDS011;73763;48.936;9.300;2024-01-07T07:47:15;8.63;;;6.50;;
83769;SDS011;73763;48.936;9.300;2024-01-07T07:49:40;8.73;;;6.80;;
83769;SDS011;73763;48.936;9.300;2024-01-07T07:52:09;9.27;;;6.70;;
83769;SDS011;73763;48.936;9.300;2024-01-07T07:54:36;8.43;;;6.28;;
83769;SDS011;73763;48.936;9.300;2024-01-07T07:57:02;8.52;;;6.47;;
83769;SDS011;73763;48.936;9.300;2024-01-07T07:59:28;9.52;;;7.20;;
83769;SDS011;73763;48.936;9.300;2024-01-07T08:01:53;9.02;;;6.78;;
83769;SDS011;73763;48.936;9.300;2024-01-07T08:04:19;9.60;;;6.77;;
83769;SDS011;73763;48.936;9.300;2024-01-07T08:06:45;9.32;;;6.75;;
83769;SDS011;73763;48.936;9.300;2024-01-07T08:09:10;10.70;;;7.80;;
83769;SDS011;73763;48.936;9.300;2024-01-07T08:11:36;10.55;;;7.93;;
83769;SDS011;73763;48.936;9.300;2024-01-07T08:14:01;9.43;;;7.43;;
83769;SDS011;73763;48.936;9.300;2024-01-07T08:16:27;10.70;;;7.73;;
83769;SDS011;73763;48.936;9.300;2024-01-07T08:18:52;9.85;;;7.13;;
83769;SDS011;73763;48.936;9.300;2024-01-07T08:21:18;10.20;;;7.03;;
83769;SDS011;73763;48.936;9.300;2024-01-07T08:23:44;8.50;;;6.72;;
83769;SDS011;73763;48.936;9.300;2024-01-07T08:26:09;9.10;;;6.67;;
83769;SDS011;73763;48.936;9.300;2024-01-07T08:28:35;6.68;;;5.55;;
83769;SDS011;73763;48.936;9.300;2024-01-07T08:31:00;6.50;;;5.13;;
83769;SDS011;73763;48.936;9.300;2024-01-07T08:33:26;6.38;;;4.68;;
83769;SDS011;73763;48.936;9.300;2024-01-07T08:35:51;5.07;;;4.13;;
83769;SDS011;73763;48.936;9.300;2024-01-07T08:38:17;5.22;;;4.38;;
83769;SDS011;73763;48.936;9.300;2024-01-07T08:40:42;6.50;;;3.87;;
83769;SDS011;73763;48.936;9.300;2024-01-07T08:43:08;4.78;;;3.53;;
83769;SDS011;73763;48.936;9.300;2024-01-07T08:45:33;4.37;;;3.40;;
83769;SDS011;73763;48.936;9.300;2024-01-07T08:47:59;4.55;;;3.60;;
83769;SDS011;73763;48.936;9.300;2024-01-07T08:50:24;5.03;;;3.80;;
83769;SDS011;73763;48.936;9.300;2024-01-07T08:52:50;4.70;;;3.90;;
83769;SDS011;73763;48.936;9.300;2024-01-07T08:55:15;4.93;;;3.50;;
83769;SDS011;73763;48.936;9.300;2024-01-07T08:57:41;5.33;;;3.90;;
83769;SDS011;73763;48.936;9.300;2024-01-07T09:00:06;4.53;;;3.77;;
83769;SDS011;73763;48.936;9.300;2024-01-07T09:02:32;4.72;;;4.18;;
83769;SDS011;73763;48.936;9.300;2024-01-07T09:04:58;4.65;;;4.00;;
83769;SDS011;73763;48.936;9.300;2024-01-07T09:07:23;6.60;;;4.30;;
83769;SDS011;73763;48.936;9.300;2024-01-07T09:09:49;5.75;;;3.97;;
83769;SDS011;73763;48.936;9.300;2024-01-07T09:12:15;4.33;;;3.77;;
83769;SDS011;73763;48.936;9.300;2024-01-07T09:14:40;4.93;;;4.00;;
83769;SDS011;73763;48.936;9.300;2024-01-07T09:17:06;5.43;;;4.17;;
83769;SDS011;73763;48.936;9.300;2024-01-07T09:19:31;5.47;;;4.45;;
83769;SDS011;73763;48.936;9.300;2024-01-07T09:21:57;5.40;;;4.50;;
83769;SDS011;73763;48.936;9.300;2024-01-07T09:24:22;5.57;;;4.65;;
83769;SDS011;73763;48.936;9.300;2024-01-07T09:26:48;5.70;;;4.80;;
83769;SDS011;73763;48.936;9.300;2024-01-07T09:29:14;6.07;;;5.10;;
83769;SDS011;73763;48.936;9.300;2024-01-07T09:31:40;6.63;;;5.13;;
83769;SDS011;73763;48.936;9.300;2024-01-07T09:34:05;7.00;;;5.57;;
83769;SDS011;73763;48.936;9.300;2024-01-07T09:36:31;8.15;;;6.00;;
83769;SDS011;73763;48.936;9.300;2024-01-07T09:38:56;6.67;;;5.60;;
83769;SDS011;73763;48.936;9.300;2024-01-07T09:41:22;7.18;;;5.72;;
83769;SDS011;73763;48.936;9.300;2024-01-07T09:43:47;6.70;;;5.13;;
83769;SDS011;73763;48.936;9.300;2024-01-07T09:46:13;5.78;;;5.03;;
83769;SDS011;73763;48.936;9.300;2024-01-07T09:48:39;6.28;;;4.90;;
83769;SDS011;73763;48.936;9.300;2024-01-07T09:51:04;6.23;;;5.07;;
83769;SDS011;73763;48.936;9.300;2024-01-07T09:53:33;5.60;;;4.83;;
83769;SDS011;73763;48.936;9.300;2024-01-07T09:58:41;7.13;;;5.65;;
83769;SDS011;73763;48.936;9.300;2024-01-07T10:01:07;6.38;;;5.45;;
83769;SDS011;73763;48.936;9.300;2024-01-07T10:03:33;6.22;;;5.20;;
83769;SDS011;73763;48.936;9.300;2024-01-07T10:05:59;6.97;;;5.82;;
83769;SDS011;73763;48.936;9.300;2024-01-07T10:08:24;7.43;;;6.03;;
83769;SDS011;73763;48.936;9.300;2024-01-07T10:10:50;6.10;;;4.97;;
83769;SDS011;73763;48.936;9.300;2024-01-07T10:13:15;7.00;;;5.73;;
83769;SDS011;73763;48.936;9.300;2024-01-07T10:15:41;7.90;;;6.10;;
83769;SDS011;73763;48.936;9.300;2024-01-07T10:18:06;6.47;;;5.63;;
83769;SDS011;73763;48.936;9.300;2024-01-07T10:20:33;7.25;;;5.60;;
83769;SDS011;73763;48.936;9.300;2024-01-07T10:22:59;6.73;;;5.43;;
83769;SDS011;73763;48.936;9.300;2024-01-07T10:25:30;6.80;;;5.40;;
83769;SDS011;73763;48.936;9.300;2024-01-07T10:27:58;6.40;;;5.40;;
83769;SDS011;73763;48.936;9.300;2024-01-07T10:30:24;6.53;;;4.93;;
83769;SDS011;73763;48.936;9.300;2024-01-07T10:32:50;5.57;;;4.95;;
83769;SDS011;73763;48.936;9.300;2024-01-07T10:35:22;6.07;;;5.47;;
83769;SDS011;73763;48.936;9.300;2024-01-07T10:37:57;6.10;;;5.32;;
83769;SDS011;73763;48.936;9.300;2024-01-07T10:40:24;5.35;;;4.57;;
83769;SDS011;73763;48.936;9.300;2024-01-07T10:42:51;5.50;;;4.70;;
83769;SDS011;73763;48.936;9.300;2024-01-07T10:45:19;6.35;;;5.38;;
83769;SDS011;73763;48.936;9.300;2024-01-07T10:47:47;6.28;;;5.20;;
83769;SDS011;73763;48.936;9.300;2024-01-07T10:50:14;6.13;;;5.20;;
83769;SDS011;73763;48.936;9.300;2024-01-07T10:52:41;6.90;;;5.67;;
83769;SDS011;73763;48.936;9.300;2024-01-07T10:55:09;6.75;;;5.22;;
83769;SDS011;73763;48.936;9.300;2024-01-07T10:57:53;6.78;;;5.88;;
83769;SDS011;73763;48.936;9.300;2024-01-07T11:00:19;7.35;;;5.80;;
83769;SDS011;73763;48.936;9.300;2024-01-07T11:14:01;6.35;;;5.57;;
83769;SDS011;73763;48.936;9.300;2024-01-07T11:19:21;6.28;;;5.68;;
83769;SDS011;73763;48.936;9.300;2024-01-07T11:21:46;6.97;;;5.53;;
83769;SDS011;73763;48.936;9.300;2024-01-07T11:24:37;6.33;;;5.23;;
83769;SDS011;73763;48.936;9.300;2024-01-07T11:27:03;7.70;;;6.07;;
83769;SDS011;73763;48.936;9.300;2024-01-07T11:29:31;7.55;;;6.00;;
83769;SDS011;73763;48.936;9.300;2024-01-07T11:31:56;6.60;;;5.60;;
83769;SDS011;73763;48.936;9.300;2024-01-07T11:34:42;8.15;;;6.75;;
83769;SDS011;73763;48.936;9.300;2024-01-07T11:37:09;7.13;;;6.32;;
83769;SDS011;73763;48.936;9.300;2024-01-07T11:39:36;8.07;;;6.18;;
83769;SDS011;73763;48.936;9.300;2024-01-07T11:42:03;8.50;;;7.10;;
83769;SDS011;73763;48.936;9.300;2024-01-07T11:44:29;8.40;;;7.28;;
83769;SDS011;73763;48.936;9.300;2024-01-07T11:46:55;8.70;;;7.43;;
83769;SDS011;73763;48.936;9.300;2024-01-07T11:49:21;9.60;;;7.35;;
83769;SDS011;73763;48.936;9.300;2024-01-07T11:51:46;7.57;;;6.63;;
83769;SDS011;73763;48.936;9.300;2024-01-07T11:54:12;9.57;;;7.80;;
83769;SDS011;73763;48.936;9.300;2024-01-07T11:56:39;8.65;;;7.10;;
83769;SDS011;73763;48.936;9.300;2024-01-07T11:59:04;9.27;;;7.40;;
83769;SDS011;73763;48.936;9.300;2024-01-07T12:01:30;9.33;;;7.60;;
83769;SDS011;73763;48.936;9.300;2024-01-07T12:03:56;9.60;;;7.90;;
83769;SDS011;73763;48.936;9.300;2024-01-07T12:06:21;8.97;;;7.70;;
83769;SDS011;73763;48.936;9.300;2024-01-07T12:08:47;9.45;;;7.90;;
83769;SDS011;73763;48.936;9.300;2024-01-07T12:11:13;8.07;;;7.00;;
83769;SDS011;73763;48.936;9.300;2024-01-07T12:13:39;8.95;;;7.65;;
83769;SDS011;73763;48.936;9.300;2024-01-07T12:16:06;8.90;;;7.97;;
83769;SDS011;73763;48.936;9.300;2024-01-07T12:18:33;9.50;;;8.10;;
83769;SDS011;73763;48.936;9.300;2024-01-07T12:21:00;9.50;;;7.97;;
83769;SDS011;73763;48.936;9.300;2024-01-07T12:23:26;9.50;;;8.23;;
83769;SDS011;73763;48.936;9.300;2024-01-07T12:25:55;9.43;;;7.65;;
83769;SDS011;73763;48.936;9.300;2024-01-07T12:28:36;9.73;;;8.32;;
83769;SDS011;73763;48.936;9.300;2024-01-07T12:31:02;11.38;;;8.57;;
83769;SDS011;73763;48.936;9.300;2024-01-07T12:33:31;10.10;;;8.55;;
83769;SDS011;73763;48.936;9.300;2024-01-07T12:36:00;12.53;;;9.50;;
83769;SDS011;73763;48.936;9.300;2024-01-07T12:38:29;11.05;;;9.05;;
83769;SDS011;73763;48.936;9.300;2024-01-07T12:40:55;10.33;;;8.50;;
83769;SDS011;73763;48.936;9.300;2024-01-07T12:43:21;10.93;;;8.90;;
83769;SDS011;73763;48.936;9.300;2024-01-07T12:45:47;10.73;;;8.32;;
83769;SDS011;73763;48.936;9.300;2024-01-07T12:48:13;11.48;;;8.43;;
83769;SDS011;73763;48.936;9.300;2024-01-07T12:50:39;8.67;;;7.63;;
83769;SDS011;73763;48.936;9.300;2024-01-07T12:53:04;10.93;;;8.60;;
83769;SDS011;73763;48.936;9.300;2024-01-07T12:55:30;11.90;;;9.32;;
83769;SDS011;73763;48.936;9.300;2024-01-07T12:57:56;11.57;;;9.20;;
83769;SDS011;73763;48.936;9.300;2024-01-07T13:00:21;11.80;;;8.43;;
83769;SDS011;73763;48.936;9.300;2024-01-07T13:02:47;11.10;;;9.00;;
83769;SDS011;73763;48.936;9.300;2024-01-07T13:05:12;10.47;;;8.50;;
83769;SDS011;73763;48.936;9.300;2024-01-07T13:07:38;10.55;;;8.65;;
83769;SDS011;73763;48.936;9.300;2024-01-07T13:10:04;10.75;;;9.00;;
83769;SDS011;73763;48.936;9.300;2024-01-07T13:12:30;10.93;;;8.65;;
83769;SDS011;73763;48.936;9.300;2024-01-07T13:14:55;10.97;;;8.80;;
83769;SDS011;73763;48.936;9.300;2024-01-07T13:17:21;14.30;;;8.80;;
83769;SDS011;73763;48.936;9.300;2024-01-07T13:19:46;11.60;;;9.23;;
83769;SDS011;73763;48.936;9.300;2024-01-07T13:22:12;11.35;;;9.30;;
83769;SDS011;73763;48.936;9.300;2024-01-07T13:24:37;11.57;;;9.27;;
83769;SDS011;73763;48.936;9.300;2024-01-07T13:27:03;11.97;;;9.20;;
83769;SDS011;73763;48.936;9.300;2024-01-07T13:29:28;12.20;;;9.55;;
83769;SDS011;73763;48.936;9.300;2024-01-07T13:31:54;12.20;;;9.70;;
83769;SDS011;73763;48.936;9.300;2024-01-07T13:34:20;14.05;;;9.90;;
83769;SDS011;73763;48.936;9.300;2024-01-07T13:36:45;12.40;;;9.80;;
83769;SDS011;73763;48.936;9.300;2024-01-07T13:39:11;10.60;;;9.10;;
83769;SDS011;73763;48.936;9.300;2024-01-07T13:41:36;12.00;;;9.70;;
83769;SDS011;73763;48.936;9.300;2024-01-07T13:44:02;11.20;;;9.20;;
83769;SDS011;73763;48.936;9.300;2024-01-07T13:46:27;11.90;;;9.20;;
83769;SDS011;73763;48.936;9.300;2024-01-07T13:48:53;12.13;;;9.68;;
83769;SDS011;73763;48.936;9.300;2024-01-07T13:51:19;12.87;;;9.87;;
83769;SDS011;73763;48.936;9.300;2024-01-07T13:53:46;11.43;;;9.35;;
83769;SDS011;73763;48.936;9.300;2024-01-07T13:56:11;11.68;;;9.63;;
83769;SDS011;73763;48.936;9.300;2024-01-07T13:58:37;12.38;;;9.40;;
83769;SDS011;73763;48.936;9.300;2024-01-07T14:01:03;13.73;;;9.47;;
83769;SDS011;73763;48.936;9.300;2024-01-07T14:03:28;11.52;;;9.38;;
83769;SDS011;73763;48.936;9.300;2024-01-07T14:05:54;11.32;;;9.13;;
83769;SDS011;73763;48.936;9.300;2024-01-07T14:08:19;12.47;;;9.07;;
83769;SDS011;73763;48.936;9.300;2024-01-07T14:10:45;10.90;;;8.43;;
83769;SDS011;73763;48.936;9.300;2024-01-07T14:13:10;12.43;;;9.10;;
83769;SDS011;73763;48.936;9.300;2024-01-07T14:15:36;11.38;;;9.45;;
83769;SDS011;73763;48.936;9.300;2024-01-07T14:18:01;12.73;;;9.57;;
83769;SDS011;73763;48.936;9.300;2024-01-07T14:20:27;11.27;;;8.85;;
83769;SDS011;73763;48.936;9.300;2024-01-07T14:22:53;11.97;;;9.17;;
83769;SDS011;73763;48.936;9.300;2024-01-07T14:25:18;11.67;;;8.90;;
83769;SDS011;73763;48.936;9.300;2024-01-07T14:27:44;13.02;;;10.13;;
83769;SDS011;73763;48.936;9.300;2024-01-07T14:30:09;12.40;;;9.67;;
83769;SDS011;73763;48.936;9.300;2024-01-07T14:32:35;13.02;;;10.55;;
83769;SDS011;73763;48.936;9.300;2024-01-07T14:35:01;13.50;;;10.38;;
83769;SDS011;73763;48.936;9.300;2024-01-07T14:37:27;12.75;;;9.98;;
83769;SDS011;73763;48.936;9.300;2024-01-07T14:39:52;12.00;;;10.17;;
83769;SDS011;73763;48.936;9.300;2024-01-07T14:42:18;12.90;;;10.25;;